Weather History for Inverness, FL

Change the Weather History Date:

Saturday, February 9, 2013

  Actual Average (KOCF) Record (KOCF)
Temperature  
Mean Temperature 60 °F -  
Max Temperature 73 °F 68 °F 80 °F (1999)
Min Temperature 46 °F 44 °F 30 °F (2006)
Degree Days  
Heating Degree Days 6    
Growing Degree Days 10 (Base 50)    
Moisture  
Dew Point 50 °F    
Average Humidity 75    
Maximum Humidity 100    
Minimum Humidity 44    
Precipitation  
Precipitation 0.00 in - - ()
Sea Level Pressure  
Sea Level Pressure 30.18 in    
Wind  
Wind Speed 4 mph (NE)    
Max Wind Speed 10 mph    
Max Gust Speed -    
Visibility 9 miles    
Events      
Averages and records for this station are not official NWS values.
T = Trace of Precipitation, MM = Missing Value Source: NWS Daily Summary

Daily Weather History Graph

Daily Weather History Graph

Search for Another Location

Airport:

Trip Planner

Search our weather history database for the weather conditions in past years. The results will help you decide how hot, cold, wet, or windy it might be!

Date:

Astronomy

Feb. 09, 2013 Rise Set
Actual Time 7:12 AM EST 6:15 PM EST
Civil Twilight 6:47 AM EST 6:39 PM EST
Nautical Twilight 6:19 AM EST 7:07 PM EST
Astronomical Twilight 5:52 AM EST 7:35 PM EST
Moon 6:23 AM EST (2/9) 5:53 PM EST (2/9)
Length of Visible Light 11h 51m
Length of Day
11h 02m
Waning Crescent, 0% of the Moon is Illuminated
Feb 9
Waning Crescent
Feb 10
New
Feb 17
First Quarter
Feb 25
Full
Mar 4
Last Quarter

Hourly Weather History & Observations

Time (EST) Temp. Windchill Dew Point Humidity Pressure Visibility Wind Dir Wind Speed Gust Speed Precip Events Conditions
12:15 AM 50.0 °F - 50.0 °F 100% 30.11 in 5.0 mi Calm Calm - N/A   Clear
12:35 AM 50.0 °F - 50.0 °F 100% 30.11 in 4.0 mi Calm Calm - N/A   Clear
12:55 AM 50.0 °F - 50.0 °F 100% 30.11 in 4.0 mi Calm Calm - N/A   Clear
1:15 AM 48.2 °F - 48.2 °F 100% 30.11 in 5.0 mi Calm Calm - N/A   Clear
1:35 AM 48.2 °F - 48.2 °F 100% 30.11 in 4.0 mi Calm Calm - N/A   Clear
1:55 AM 46.4 °F - 46.4 °F 100% 30.11 in 2.0 mi Calm Calm - N/A   Clear
2:15 AM 48.2 °F - 48.2 °F 100% 30.11 in 5.0 mi Calm Calm - N/A   Clear
2:35 AM 46.4 °F - 46.4 °F 100% 30.11 in 3.0 mi Calm Calm - N/A   Clear
2:55 AM 46.4 °F - 46.4 °F 100% 30.12 in 2.5 mi Calm Calm - N/A   Clear
3:15 AM 46.4 °F - 46.4 °F 100% 30.12 in 5.0 mi Calm Calm - N/A   Clear
3:35 AM 46.4 °F 45.2 °F 46.4 °F 100% 30.13 in 7.0 mi North 3.5 mph - N/A   Clear
3:55 AM 51.8 °F - 51.8 °F 100% 30.13 in 10.0 mi North 5.8 mph - N/A   Clear
4:15 AM 53.6 °F - 51.8 °F 94% 30.13 in 10.0 mi North 4.6 mph - N/A   Clear
4:35 AM 53.6 °F - 51.8 °F 94% 30.13 in 10.0 mi North 6.9 mph - N/A   Clear
4:55 AM 53.6 °F - 51.8 °F 94% 30.14 in 10.0 mi North 8.1 mph - N/A   Clear
5:15 AM 53.6 °F - 51.8 °F 94% 30.14 in 10.0 mi North 9.2 mph - N/A   Clear
5:35 AM 51.8 °F - 51.8 °F 100% 30.15 in 10.0 mi North 6.9 mph - N/A   Clear
5:55 AM 51.8 °F - 51.8 °F 100% 30.16 in 10.0 mi North 8.1 mph - N/A   Clear
6:15 AM 51.8 °F - 51.8 °F 100% 30.16 in 10.0 mi North 8.1 mph - N/A   Clear
6:35 AM 51.8 °F - 51.8 °F 100% 30.17 in 10.0 mi North 4.6 mph - N/A   Clear
6:55 AM 51.8 °F - 50.0 °F 94% 30.18 in 10.0 mi North 3.5 mph - N/A   Clear
7:15 AM 50.0 °F - 50.0 °F 100% 30.19 in 10.0 mi North 4.6 mph - N/A   Clear
7:35 AM 51.8 °F - 50.0 °F 94% 30.20 in 10.0 mi North 4.6 mph - N/A   Clear
7:55 AM 51.8 °F - 50.0 °F 94% 30.20 in 10.0 mi North 6.9 mph - N/A   Clear
8:15 AM 53.6 °F - 50.0 °F 88% 30.21 in 10.0 mi North 9.2 mph - N/A   Clear
8:35 AM 53.6 °F - 50.0 °F 88% 30.22 in 10.0 mi NNE 9.2 mph - N/A   Clear
8:55 AM 55.4 °F - 50.0 °F 82% 30.22 in 10.0 mi NE 10.4 mph - N/A   Clear
9:15 AM 55.4 °F - 50.0 °F 82% 30.23 in 10.0 mi NNE 8.1 mph - N/A   Clear
9:35 AM 57.2 °F - 50.0 °F 77% 30.23 in 10.0 mi NE 6.9 mph - N/A   Clear
9:55 AM 59.0 °F - 50.0 °F 72% 30.23 in 10.0 mi NE 8.1 mph - N/A   Clear
10:15 AM 60.8 °F - 50.0 °F 68% 30.24 in 10.0 mi ENE 6.9 mph - N/A   Clear
10:35 AM 60.8 °F - 50.0 °F 68% 30.24 in 10.0 mi ENE 6.9 mph - N/A   Clear
10:55 AM 62.6 °F - 50.0 °F 63% 30.24 in 10.0 mi ENE 6.9 mph - N/A   Clear
11:15 AM 64.4 °F - 51.8 °F 64% 30.23 in 10.0 mi NE 8.1 mph - N/A   Clear
11:35 AM 64.4 °F - 51.8 °F 64% 30.23 in 10.0 mi ENE 4.6 mph - N/A   Clear
11:55 AM 68.0 °F - 51.8 °F 56% 30.22 in 10.0 mi NE 6.9 mph - N/A   Clear
12:15 PM 68.0 °F - 51.8 °F 56% 30.22 in 10.0 mi East 4.6 mph - N/A   Clear
12:35 PM 69.8 °F - 51.8 °F 53% 30.21 in 10.0 mi NE 4.6 mph - N/A   Clear
12:55 PM 69.8 °F - 51.8 °F 53% 30.20 in 10.0 mi ENE 5.8 mph - N/A   Clear
1:15 PM 69.8 °F - 50.0 °F 49% 30.19 in 10.0 mi NNE 8.1 mph - N/A   Clear
1:35 PM 69.8 °F - 50.0 °F 49% 30.19 in 10.0 mi ENE 9.2 mph - N/A   Clear
1:55 PM 71.6 °F - 50.0 °F 46% 30.18 in 10.0 mi ENE 8.1 mph - N/A   Clear
2:15 PM 71.6 °F - 50.0 °F 46% 30.17 in 10.0 mi ENE 4.6 mph - N/A   Clear
2:35 PM 73.4 °F - 50.0 °F 44% 30.17 in 10.0 mi ENE 6.9 mph - N/A   Clear
2:55 PM 73.4 °F - 51.8 °F 47% 30.17 in 10.0 mi NE 10.4 mph - N/A   Clear
3:15 PM 71.6 °F - 51.8 °F 50% 30.16 in 10.0 mi NE 4.6 mph - N/A   Clear
3:35 PM 73.4 °F - 50.0 °F 44% 30.16 in 10.0 mi Calm Calm - N/A   Mostly Cloudy
3:55 PM 73.4 °F - 51.8 °F 47% 30.16 in 10.0 mi East 8.1 mph - N/A   Mostly Cloudy
4:15 PM 71.6 °F - 51.8 °F 50% 30.16 in 10.0 mi ESE 6.9 mph - N/A   Scattered Clouds
4:35 PM 73.4 °F - 50.0 °F 44% 30.16 in 10.0 mi ESE 8.1 mph - N/A   Mostly Cloudy
4:55 PM 73.4 °F - 50.0 °F 44% 30.17 in 10.0 mi East 9.2 mph - N/A   Mostly Cloudy
5:15 PM 71.6 °F - 50.0 °F 46% 30.17 in 10.0 mi East 6.9 mph - N/A   Scattered Clouds
5:35 PM 71.6 °F - 50.0 °F 46% 30.17 in 10.0 mi ENE 3.5 mph - N/A   Clear
5:55 PM 69.8 °F - 50.0 °F 49% 30.17 in 10.0 mi East 6.9 mph - N/A   Clear
6:15 PM 68.0 °F - 50.0 °F 52% 30.17 in 10.0 mi NE 3.5 mph - N/A   Scattered Clouds
6:35 PM 68.0 °F - 50.0 °F 52% 30.18 in 10.0 mi ENE 4.6 mph - N/A   Mostly Cloudy
6:55 PM 64.4 °F - 50.0 °F 59% 30.18 in 10.0 mi ENE 3.5 mph - N/A   Scattered Clouds
7:15 PM 64.4 °F - 51.8 °F 64% 30.19 in 10.0 mi ENE 4.6 mph - N/A   Clear
7:35 PM 64.4 °F - 51.8 °F 64% 30.19 in 10.0 mi ENE 6.9 mph - N/A   Clear
7:55 PM 62.6 °F - 50.0 °F 63% 30.20 in 10.0 mi ENE 8.1 mph - N/A   Clear
8:35 PM 60.8 °F - 50.0 °F 68% 30.22 in 10.0 mi ENE 6.9 mph - N/A   Clear
8:55 PM 60.8 °F - 50.0 °F 68% 30.23 in 10.0 mi ENE 8.1 mph - N/A   Clear
9:15 PM 60.8 °F - 50.0 °F 68% 30.23 in 10.0 mi ENE 6.9 mph - N/A   Clear
9:35 PM 59.0 °F - 50.0 °F 72% 30.24 in 10.0 mi ENE 4.6 mph - N/A   Clear
9:55 PM 57.2 °F - 50.0 °F 77% 30.24 in 10.0 mi NE 4.6 mph - N/A   Clear
10:15 PM 55.4 °F - 50.0 °F 82% 30.24 in 10.0 mi NE 3.5 mph - N/A   Clear
10:35 PM 55.4 °F - 50.0 °F 82% 30.24 in 10.0 mi NE 3.5 mph - N/A   Clear
10:55 PM 53.6 °F - 48.2 °F 82% 30.24 in 10.0 mi NE 4.6 mph - N/A   Clear
11:15 PM 53.6 °F - 48.2 °F 82% 30.24 in 10.0 mi NE 3.5 mph - N/A   Clear
11:35 PM 53.6 °F - 48.2 °F 82% 30.24 in 10.0 mi NE 3.5 mph - N/A   Clear
11:55 PM 53.6 °F - 48.2 °F 82% 30.24 in 10.0 mi NE 3.5 mph - N/A   Clear